NCAR-RAP Real-Time Weather Data

Output produced by METARs form (08 May 2021  16:43 UTC)
found at http://weather.rap.ucar.edu/surface/
 
KUAO 081553Z COR 19005KT 10SM OVC030 FEW055 OVC085 07/04 A3044 RMK AO2 SLP308 T00720039
KUAO 081453Z 15003KT 10SM SCT055 OVC085 06/04 A3044 RMK AO2 SLP307 T00610039 53011
KUAO 081353Z AUTO 00000KT 10SM OVC050 04/03 A3042 RMK AO2 SLP301 T00440033
KUAO 081253Z AUTO 00000KT 5SM BR FEW050 03/02 A3042 RMK AO2 SLP299 T00280017
KUAO 081153Z AUTO 00000KT 7SM CLR 03/02 A3040 RMK AO2 SLP296 70005 T00280017 10078 20028 57003
KUAO 081053Z AUTO 00000KT 10SM FEW050 05/03 A3041 RMK AO2 SLP296 T00500028
KUAO 080953Z AUTO 00000KT 10SM FEW050 04/03 A3041 RMK AO2 SLP298 T00440028
KUAO 080853Z AUTO 00000KT 10SM CLR 05/03 A3041 RMK AO2 SLP299 T00500028 51005
KUAO 080753Z AUTO 22003KT 10SM CLR 05/02 A3041 RMK AO2 SLP299 T00500022 401610050
KUAO 080653Z AUTO 23003KT 10SM CLR 07/03 A3041 RMK AO2 SLP297 T00670028
KUAO 080553Z AUTO 19003KT 10SM CLR 08/03 A3040 RMK AO2 SLP293 T00780028 10156 20072 51021
KUAO 080453Z AUTO VRB03KT 10SM CLR 09/02 A3039 RMK AO2 SLP290 T00940022
KUAO 080353Z AUTO 29004KT 10SM CLR 11/02 A3037 RMK AO2 SLP283 T01060017